• Join FlightAware (Why Join?)
  • Login
  • US Flag 
07:14PM EDT


 

Airport Tracker/Info


-or-


 

Live Flight TrackerFlight Track Log ✈ SWA3408 ✈ 31-Jul-2013 ✈ KSJC - KLAS

Flight Track Log - Related Links

Times and Time Zones

All times are in EDT time to prevent confusion due to time zone crossing. See the SWA3408 flight status page for this flight to view local times or setup timezone preferences in your user account.

Time Position Orientation Groundspeed Altitude Reporting Facility
EDT Latitude Longitude Course Direction KTS MPH feet Rate Location/Type
12:08AM 37.3833 -121.9500 349° North 171 197 2,000  Level Northern Cal TRACON
12:09AM 37.4500 -121.9667 349° North 236 272 5,000 2,520 Climbing Northern Cal TRACON
12:10AM 37.4500 -121.8833 90° East 280 322 7,100 3,060 Climbing Northern Cal TRACON
12:11AM 37.4167 -121.7833 113° Southeast 309 356 11,200 3,240 Climbing Northern Cal TRACON
12:12AM 37.3833 -121.6667 110° East 397 457 13,600 2,460 Climbing Northern Cal TRACON
12:13AM 37.3586 -121.5700 108° East 409 471 15,900 3,000 Climbing Oakland Center
12:14AM 37.3164 -121.4108 108° East 430 495 19,400 3,060 Climbing Oakland Center
12:15AM 37.2750 -121.2619 109° East 449 517 22,200 2,520 Climbing Oakland Center
12:16AM 37.2336 -121.1011 108° East 477 549 24,600 2,700 Climbing Oakland Center
12:17AM 37.1894 -120.9403 109° East 487 560 27,800 2,820 Climbing Oakland Center
12:18AM 37.1475 -120.7797 108° East 485 558 30,500 2,520 Climbing Oakland Center
12:19AM 37.1067 -120.5861 105° East 483 556 33,000 1,200 Climbing Oakland Center
12:20AM 37.0953 -120.4125 95° East 498 573 33,000  Level Oakland Center
12:21AM 37.0847 -120.2389 94° East 502 578 33,000  Level Oakland Center
12:22AM 37.0733 -120.0689 95° East 504 580 33,000  Level Oakland Center
12:23AM 37.0622 -119.8928 94° East 506 582 33,000 540 Level Oakland Center
12:24AM 37.0494 -119.7164 95° East 508 585 34,100 1,800 Climbing Oakland Center
12:25AM 37.0381 -119.5475 95° East 489 563 36,700 1,380 Climbing Oakland Center
12:26AM 37.0261 -119.3792 95° East 486 559 37,000 120 Climbing Oakland Center
12:27AM 37.0133 -119.2092 95° East 489 563 37,000  Level Oakland Center
12:28AM 36.9994 -119.0361 96° East 495 570 37,000  Level Oakland Center
12:29AM 36.9836 -118.8328 96° East 493 567 37,000  Level Oakland Center
12:30AM 36.9689 -118.6614 96° East 493 567 37,000  Level Oakland Center
12:31AM 36.9572 -118.4961 95° East 485 558 37,000  Level Oakland Center
12:32AM 36.9444 -118.3383 96° East 480 552 37,000  Level Oakland Center
12:33AM 36.9272 -118.1358 96° East 486 559 37,000  Level Los Angeles Center
12:34AM 36.9136 -117.9700 96° East 484 557 37,000  Level Los Angeles Center
12:35AM 36.9022 -117.8414 96° East 479 551 37,000  Level Oakland Center
12:36AM 36.8869 -117.6747 96° East 482 555 37,000 -1,800 Level Oakland Center
12:37AM 36.8700 -117.4756 96° East 483 556 33,400 -3,000 Descending Oakland Center
12:38AM 36.8542 -117.3092 97° East 483 556 31,000 -1,200 Descending Oakland Center
12:39AM 36.8364 -117.1389 97° East 487 560 31,000  Level Oakland Center
12:40AM 36.7733 -116.9914 118° Southeast 482 555 31,000  Level Oakland Center
12:42AM 36.6878 -116.8222 122° Southeast 478 550 31,000  Level Los Angeles Center
12:43AM 36.6208 -116.6956 123° Southeast 478 550 31,000 -120 Level Los Angeles Center
12:44AM 36.5494 -116.5564 123° Southeast 477 549 30,800 -2,280 Descending Los Angeles Center
12:45AM 36.4769 -116.4203 123° Southeast 474 545 26,400 -3,900 Descending Los Angeles Center
12:46AM 36.4056 -116.2842 123° Southeast 472 543 22,900 2,220 Descending Los Angeles Center
12:47AM 36.3264 -116.1311 123° Southeast 456 525 31,000 3,900 Climbing Los Angeles Center
12:48AM 36.2642 -116.0125 123° Southeast 419 482 31,000 -8,280 Level Los Angeles Center
12:48AM 36.2156 -115.9317 127° Southeast 391 450 16,000 -8,400 Descending Los Angeles Center
12:49AM 36.1756 -115.8247 115° Southeast 340 391 15,900 -120 Descending Los Angeles Center
12:50AM 36.1414 -115.7133 111° Southeast 327 376 15,800 -900 Descending Los Angeles Center
12:51AM 36.1058 -115.6078 113° Southeast 332 382 14,100 -1,680 Descending Los Angeles Center
12:53AM 36.0708 -115.4944 111° Southeast 326 375 12,300 -1,500 Descending Los Angeles Center
12:54AM 36.0353 -115.3889 113° Southeast 305 351 10,900 -960 Descending Los Angeles Center
12:55AM 36.0256 -115.2939 97° East 273 314 10,400 -480 Descending Los Angeles Center
12:56AM 36.0189 -115.2136 96° East 226 260 10,000 -720 Descending Los Angeles Center
12:57AM 36.0161 -115.1508 93° East 202 232 9,100 -1,080 Descending Los Angeles Center
12:58AM 36.0103 -115.0836 96° East 199 229 8,000 -1,140 Descending Los Angeles Center
12:59AM 36.0069 -115.0103 93° East 199 229 6,900 -960 Descending Los Angeles Center
01:00AM 36.0031 -114.9422 94° East 197 227 6,100 -720 Descending Los Angeles Center
01:01AM 35.9978 -114.8697 95° East 200 230 5,400 -360 Descending Los Angeles Center
01:02AM 36.0508 -114.8547 13° North 205 236 5,400 -60 Level Los Angeles Center
01:03AM 36.0725 -114.9139 294° West 192 221 5,300 -660 Descending Los Angeles Center
01:04AM 36.0736 -114.9881 271° West 192 221 4,100 -900 Descending Los Angeles Center
01:06AM 36.0728 -115.1028 270° West 136 157 2,400 -840 Descending Los Angeles Center
01:08AM 36.0667 -115.1500 270° West  Level FlightAware Approximate
01:15AM 36.0801 -115.1523 270° West  Level Estimated